sensor_id;sensor_type;location;lat;lon;timestamp;P1;durP1;ratioP1;P2;durP2;ratioP2
29026;SDS011;16120;48.608;9.092;2023-12-14T00:02:39;115.40;;;9.03;;
29026;SDS011;16120;48.608;9.092;2023-12-14T00:06:35;115.77;;;9.90;;
29026;SDS011;16120;48.608;9.092;2023-12-14T00:10:30;115.77;;;9.50;;
29026;SDS011;16120;48.608;9.092;2023-12-14T00:14:26;115.43;;;8.97;;
29026;SDS011;16120;48.608;9.092;2023-12-14T00:18:22;115.40;;;9.57;;
29026;SDS011;16120;48.608;9.092;2023-12-14T00:22:17;115.40;;;8.83;;
29026;SDS011;16120;48.608;9.092;2023-12-14T00:26:12;116.03;;;9.70;;
29026;SDS011;16120;48.608;9.092;2023-12-14T00:30:09;115.50;;;9.13;;
29026;SDS011;16120;48.608;9.092;2023-12-14T00:34:05;116.07;;;9.20;;
29026;SDS011;16120;48.608;9.092;2023-12-14T00:38:00;114.60;;;8.60;;
29026;SDS011;16120;48.608;9.092;2023-12-14T00:41:55;115.43;;;8.97;;
29026;SDS011;16120;48.608;9.092;2023-12-14T00:45:52;115.60;;;8.97;;
29026;SDS011;16120;48.608;9.092;2023-12-14T00:49:47;115.57;;;8.90;;
29026;SDS011;16120;48.608;9.092;2023-12-14T00:53:42;115.37;;;8.80;;
29026;SDS011;16120;48.608;9.092;2023-12-14T00:57:37;115.93;;;9.53;;
29026;SDS011;16120;48.608;9.092;2023-12-14T01:01:34;115.53;;;9.00;;
29026;SDS011;16120;48.608;9.092;2023-12-14T01:05:29;115.20;;;8.93;;
29026;SDS011;16120;48.608;9.092;2023-12-14T01:09:24;115.68;;;8.75;;
29026;SDS011;16120;48.608;9.092;2023-12-14T01:13:20;115.47;;;8.90;;
29026;SDS011;16120;48.608;9.092;2023-12-14T01:17:16;115.93;;;9.27;;
29026;SDS011;16120;48.608;9.092;2023-12-14T01:21:11;115.17;;;9.10;;
29026;SDS011;16120;48.608;9.092;2023-12-14T01:25:07;116.00;;;9.30;;
29026;SDS011;16120;48.608;9.092;2023-12-14T01:29:02;115.47;;;8.70;;
29026;SDS011;16120;48.608;9.092;2023-12-14T01:32:59;115.50;;;9.30;;
29026;SDS011;16120;48.608;9.092;2023-12-14T01:36:54;114.73;;;8.70;;
29026;SDS011;16120;48.608;9.092;2023-12-14T01:40:49;115.23;;;8.37;;
29026;SDS011;16120;48.608;9.092;2023-12-14T01:44:44;115.30;;;8.90;;
29026;SDS011;16120;48.608;9.092;2023-12-14T01:48:41;115.73;;;9.10;;
29026;SDS011;16120;48.608;9.092;2023-12-14T01:52:36;115.37;;;9.27;;
29026;SDS011;16120;48.608;9.092;2023-12-14T01:56:31;115.82;;;9.10;;
29026;SDS011;16120;48.608;9.092;2023-12-14T02:00:27;115.00;;;8.40;;
29026;SDS011;16120;48.608;9.092;2023-12-14T02:04:25;115.00;;;8.80;;
29026;SDS011;16120;48.608;9.092;2023-12-14T02:08:21;114.67;;;9.13;;
29026;SDS011;16120;48.608;9.092;2023-12-14T02:12:16;114.87;;;8.57;;
29026;SDS011;16120;48.608;9.092;2023-12-14T02:16:11;114.75;;;8.25;;
29026;SDS011;16120;48.608;9.092;2023-12-14T02:20:08;115.40;;;8.50;;
29026;SDS011;16120;48.608;9.092;2023-12-14T02:24:05;115.43;;;8.90;;
29026;SDS011;16120;48.608;9.092;2023-12-14T02:28:00;115.40;;;8.90;;
29026;SDS011;16120;48.608;9.092;2023-12-14T02:31:55;115.10;;;8.30;;
29026;SDS011;16120;48.608;9.092;2023-12-14T02:35:51;115.20;;;8.63;;
29026;SDS011;16120;48.608;9.092;2023-12-14T02:39:47;115.43;;;8.70;;
29026;SDS011;16120;48.608;9.092;2023-12-14T02:43:42;115.20;;;8.47;;
29026;SDS011;16120;48.608;9.092;2023-12-14T02:47:37;113.83;;;8.33;;
29026;SDS011;16120;48.608;9.092;2023-12-14T02:51:33;115.10;;;8.43;;
29026;SDS011;16120;48.608;9.092;2023-12-14T02:55:29;115.40;;;8.80;;
29026;SDS011;16120;48.608;9.092;2023-12-14T02:59:24;114.80;;;8.30;;
29026;SDS011;16120;48.608;9.092;2023-12-14T03:03:20;115.40;;;9.20;;
29026;SDS011;16120;48.608;9.092;2023-12-14T03:07:15;115.10;;;8.67;;
29026;SDS011;16120;48.608;9.092;2023-12-14T03:11:20;114.80;;;8.23;;
29026;SDS011;16120;48.608;9.092;2023-12-14T03:15:16;115.40;;;8.90;;
29026;SDS011;16120;48.608;9.092;2023-12-14T03:19:12;114.57;;;8.33;;
29026;SDS011;16120;48.608;9.092;2023-12-14T03:23:07;115.20;;;8.53;;
29026;SDS011;16120;48.608;9.092;2023-12-14T03:27:04;115.43;;;9.23;;
29026;SDS011;16120;48.608;9.092;2023-12-14T03:30:59;115.27;;;8.20;;
29026;SDS011;16120;48.608;9.092;2023-12-14T03:34:55;114.97;;;8.30;;
29026;SDS011;16120;48.608;9.092;2023-12-14T03:38:50;114.70;;;8.40;;
29026;SDS011;16120;48.608;9.092;2023-12-14T03:42:46;114.87;;;8.60;;
29026;SDS011;16120;48.608;9.092;2023-12-14T03:46:41;115.27;;;8.50;;
29026;SDS011;16120;48.608;9.092;2023-12-14T03:50:37;114.57;;;8.23;;
29026;SDS011;16120;48.608;9.092;2023-12-14T03:54:32;114.70;;;8.55;;
29026;SDS011;16120;48.608;9.092;2023-12-14T03:58:29;114.83;;;8.50;;
29026;SDS011;16120;48.608;9.092;2023-12-14T04:02:24;115.67;;;9.40;;
29026;SDS011;16120;48.608;9.092;2023-12-14T04:06:19;114.90;;;8.53;;
29026;SDS011;16120;48.608;9.092;2023-12-14T04:10:14;114.80;;;8.47;;
29026;SDS011;16120;48.608;9.092;2023-12-14T04:14:11;114.90;;;8.37;;
29026;SDS011;16120;48.608;9.092;2023-12-14T04:18:07;114.70;;;8.43;;
29026;SDS011;16120;48.608;9.092;2023-12-14T04:22:03;115.27;;;8.90;;
29026;SDS011;16120;48.608;9.092;2023-12-14T04:25:58;114.80;;;8.50;;
29026;SDS011;16120;48.608;9.092;2023-12-14T04:29:54;114.57;;;8.27;;
29026;SDS011;16120;48.608;9.092;2023-12-14T04:33:50;114.90;;;8.70;;
29026;SDS011;16120;48.608;9.092;2023-12-14T04:37:45;114.70;;;8.30;;
29026;SDS011;16120;48.608;9.092;2023-12-14T04:41:40;114.97;;;8.50;;
29026;SDS011;16120;48.608;9.092;2023-12-14T04:45:36;114.80;;;8.70;;
29026;SDS011;16120;48.608;9.092;2023-12-14T04:49:32;114.60;;;8.80;;
29026;SDS011;16120;48.608;9.092;2023-12-14T04:53:27;114.67;;;8.50;;
29026;SDS011;16120;48.608;9.092;2023-12-14T04:57:22;114.80;;;8.47;;
29026;SDS011;16120;48.608;9.092;2023-12-14T05:01:19;114.77;;;8.73;;
29026;SDS011;16120;48.608;9.092;2023-12-14T05:05:14;114.50;;;8.50;;
29026;SDS011;16120;48.608;9.092;2023-12-14T05:09:09;114.50;;;8.43;;
29026;SDS011;16120;48.608;9.092;2023-12-14T05:13:04;114.60;;;8.33;;
29026;SDS011;16120;48.608;9.092;2023-12-14T05:17:01;114.40;;;8.43;;
29026;SDS011;16120;48.608;9.092;2023-12-14T05:20:56;114.27;;;8.23;;
29026;SDS011;16120;48.608;9.092;2023-12-14T05:24:51;114.47;;;8.77;;
29026;SDS011;16120;48.608;9.092;2023-12-14T05:28:46;114.90;;;8.45;;
29026;SDS011;16120;48.608;9.092;2023-12-14T05:32:43;114.75;;;8.65;;
29026;SDS011;16120;48.608;9.092;2023-12-14T05:36:38;114.70;;;8.40;;
29026;SDS011;16120;48.608;9.092;2023-12-14T05:40:33;114.80;;;8.47;;
29026;SDS011;16120;48.608;9.092;2023-12-14T05:44:29;114.37;;;8.77;;
29026;SDS011;16120;48.608;9.092;2023-12-14T05:48:25;114.72;;;8.88;;
29026;SDS011;16120;48.608;9.092;2023-12-14T05:52:20;115.00;;;8.97;;
29026;SDS011;16120;48.608;9.092;2023-12-14T05:56:16;114.53;;;8.43;;
29026;SDS011;16120;48.608;9.092;2023-12-14T06:00:12;114.50;;;8.53;;
29026;SDS011;16120;48.608;9.092;2023-12-14T06:04:08;115.07;;;8.33;;
29026;SDS011;16120;48.608;9.092;2023-12-14T06:08:03;114.40;;;8.27;;
29026;SDS011;16120;48.608;9.092;2023-12-14T06:11:59;114.20;;;8.33;;
29026;SDS011;16120;48.608;9.092;2023-12-14T06:15:54;114.90;;;8.33;;
29026;SDS011;16120;48.608;9.092;2023-12-14T06:19:51;114.80;;;8.60;;
29026;SDS011;16120;48.608;9.092;2023-12-14T06:23:46;114.60;;;8.90;;
29026;SDS011;16120;48.608;9.092;2023-12-14T06:27:41;114.70;;;8.83;;
29026;SDS011;16120;48.608;9.092;2023-12-14T06:31:36;114.60;;;8.67;;
29026;SDS011;16120;48.608;9.092;2023-12-14T06:35:33;114.67;;;8.87;;
29026;SDS011;16120;48.608;9.092;2023-12-14T06:39:28;114.80;;;8.70;;
29026;SDS011;16120;48.608;9.092;2023-12-14T06:43:23;114.33;;;8.50;;
29026;SDS011;16120;48.608;9.092;2023-12-14T06:47:19;114.47;;;8.27;;
29026;SDS011;16120;48.608;9.092;2023-12-14T06:51:15;115.17;;;8.47;;
29026;SDS011;16120;48.608;9.092;2023-12-14T06:55:10;114.57;;;8.50;;
29026;SDS011;16120;48.608;9.092;2023-12-14T06:59:06;114.90;;;8.70;;
29026;SDS011;16120;48.608;9.092;2023-12-14T07:03:01;115.13;;;8.90;;
29026;SDS011;16120;48.608;9.092;2023-12-14T07:06:57;114.93;;;8.47;;
29026;SDS011;16120;48.608;9.092;2023-12-14T07:10:53;114.27;;;8.63;;
29026;SDS011;16120;48.608;9.092;2023-12-14T07:14:48;114.60;;;9.00;;
29026;SDS011;16120;48.608;9.092;2023-12-14T07:18:43;114.33;;;8.20;;
29026;SDS011;16120;48.608;9.092;2023-12-14T07:22:39;114.70;;;8.37;;
29026;SDS011;16120;48.608;9.092;2023-12-14T07:26:35;114.27;;;8.60;;
29026;SDS011;16120;48.608;9.092;2023-12-14T07:30:30;114.30;;;8.17;;
29026;SDS011;16120;48.608;9.092;2023-12-14T07:34:25;114.30;;;8.25;;
29026;SDS011;16120;48.608;9.092;2023-12-14T07:38:22;114.47;;;8.43;;
29026;SDS011;16120;48.608;9.092;2023-12-14T07:42:17;114.40;;;8.23;;
29026;SDS011;16120;48.608;9.092;2023-12-14T07:46:12;114.22;;;8.32;;
29026;SDS011;16120;48.608;9.092;2023-12-14T07:50:08;114.50;;;8.60;;
29026;SDS011;16120;48.608;9.092;2023-12-14T07:54:05;114.17;;;8.37;;
29026;SDS011;16120;48.608;9.092;2023-12-14T07:58:00;114.33;;;8.63;;
29026;SDS011;16120;48.608;9.092;2023-12-14T08:01:55;114.75;;;8.45;;
29026;SDS011;16120;48.608;9.092;2023-12-14T08:05:52;114.13;;;8.18;;
29026;SDS011;16120;48.608;9.092;2023-12-14T08:09:49;114.93;;;9.00;;
29026;SDS011;16120;48.608;9.092;2023-12-14T08:13:44;114.77;;;9.10;;
29026;SDS011;16120;48.608;9.092;2023-12-14T08:17:39;114.47;;;8.50;;
29026;SDS011;16120;48.608;9.092;2023-12-14T08:21:34;114.07;;;8.50;;
29026;SDS011;16120;48.608;9.092;2023-12-14T08:25:31;114.10;;;8.53;;
29026;SDS011;16120;48.608;9.092;2023-12-14T08:29:26;114.10;;;8.37;;
29026;SDS011;16120;48.608;9.092;2023-12-14T08:33:21;114.27;;;8.30;;
29026;SDS011;16120;48.608;9.092;2023-12-14T08:37:16;114.32;;;8.60;;
29026;SDS011;16120;48.608;9.092;2023-12-14T08:41:13;114.10;;;8.20;;
29026;SDS011;16120;48.608;9.092;2023-12-14T08:45:09;113.80;;;8.40;;
29026;SDS011;16120;48.608;9.092;2023-12-14T08:49:04;114.00;;;8.40;;
29026;SDS011;16120;48.608;9.092;2023-12-14T08:52:59;113.60;;;8.27;;
29026;SDS011;16120;48.608;9.092;2023-12-14T08:56:56;113.33;;;8.23;;
29026;SDS011;16120;48.608;9.092;2023-12-14T09:00:51;113.97;;;8.40;;
29026;SDS011;16120;48.608;9.092;2023-12-14T09:04:46;113.43;;;8.48;;
29026;SDS011;16120;48.608;9.092;2023-12-14T09:08:41;114.07;;;8.50;;
29026;SDS011;16120;48.608;9.092;2023-12-14T09:12:38;113.63;;;8.20;;
29026;SDS011;16120;48.608;9.092;2023-12-14T09:16:33;113.70;;;8.40;;
29026;SDS011;16120;48.608;9.092;2023-12-14T09:20:28;113.60;;;8.17;;
29026;SDS011;16120;48.608;9.092;2023-12-14T09:24:24;113.40;;;8.47;;
29026;SDS011;16120;48.608;9.092;2023-12-14T09:28:20;113.40;;;8.13;;
29026;SDS011;16120;48.608;9.092;2023-12-14T09:32:15;113.40;;;8.40;;
29026;SDS011;16120;48.608;9.092;2023-12-14T09:36:11;114.17;;;8.60;;
29026;SDS011;16120;48.608;9.092;2023-12-14T09:40:06;113.40;;;8.60;;
29026;SDS011;16120;48.608;9.092;2023-12-14T09:44:04;112.97;;;8.40;;
29026;SDS011;16120;48.608;9.092;2023-12-14T09:47:59;112.70;;;8.23;;
29026;SDS011;16120;48.608;9.092;2023-12-14T09:51:55;113.37;;;8.23;;
29026;SDS011;16120;48.608;9.092;2023-12-14T09:55:50;113.03;;;8.05;;
29026;SDS011;16120;48.608;9.092;2023-12-14T09:59:51;112.40;;;8.07;;
29026;SDS011;16120;48.608;9.092;2023-12-14T10:03:47;112.60;;;7.93;;
29026;SDS011;16120;48.608;9.092;2023-12-14T10:07:42;112.37;;;7.93;;
29026;SDS011;16120;48.608;9.092;2023-12-14T10:11:37;112.07;;;7.87;;
29026;SDS011;16120;48.608;9.092;2023-12-14T10:15:41;112.30;;;7.77;;
29026;SDS011;16120;48.608;9.092;2023-12-14T10:19:36;111.60;;;7.83;;
29026;SDS011;16120;48.608;9.092;2023-12-14T10:23:31;111.90;;;7.80;;
29026;SDS011;16120;48.608;9.092;2023-12-14T10:27:29;112.37;;;8.10;;
29026;SDS011;16120;48.608;9.092;2023-12-14T10:31:26;111.80;;;7.70;;
29026;SDS011;16120;48.608;9.092;2023-12-14T10:35:21;111.40;;;7.43;;
29026;SDS011;16120;48.608;9.092;2023-12-14T10:39:17;111.47;;;7.18;;
29026;SDS011;16120;48.608;9.092;2023-12-14T10:43:13;111.50;;;7.40;;
29026;SDS011;16120;48.608;9.092;2023-12-14T10:47:11;111.13;;;7.63;;
29026;SDS011;16120;48.608;9.092;2023-12-14T10:51:07;110.77;;;7.70;;
29026;SDS011;16120;48.608;9.092;2023-12-14T10:55:04;110.90;;;7.70;;
29026;SDS011;16120;48.608;9.092;2023-12-14T10:59:01;111.37;;;7.87;;
29026;SDS011;16120;48.608;9.092;2023-12-14T11:02:58;110.70;;;7.63;;
29026;SDS011;16120;48.608;9.092;2023-12-14T11:06:54;110.73;;;7.67;;
29026;SDS011;16120;48.608;9.092;2023-12-14T11:10:52;110.90;;;7.70;;
29026;SDS011;16120;48.608;9.092;2023-12-14T11:14:47;111.10;;;8.10;;
29026;SDS011;16120;48.608;9.092;2023-12-14T11:18:44;110.70;;;7.77;;
29026;SDS011;16120;48.608;9.092;2023-12-14T11:22:39;110.30;;;7.80;;
29026;SDS011;16120;48.608;9.092;2023-12-14T11:26:38;110.57;;;7.87;;
29026;SDS011;16120;48.608;9.092;2023-12-14T11:30:33;109.80;;;7.77;;
29026;SDS011;16120;48.608;9.092;2023-12-14T11:34:30;110.07;;;8.00;;
29026;SDS011;16120;48.608;9.092;2023-12-14T11:38:25;110.30;;;7.93;;
29026;SDS011;16120;48.608;9.092;2023-12-14T11:42:20;110.82;;;7.65;;
29026;SDS011;16120;48.608;9.092;2023-12-14T11:46:15;110.20;;;7.37;;
29026;SDS011;16120;48.608;9.092;2023-12-14T11:50:12;110.70;;;7.60;;
29026;SDS011;16120;48.608;9.092;2023-12-14T11:54:07;110.53;;;7.57;;
29026;SDS011;16120;48.608;9.092;2023-12-14T11:58:02;110.20;;;7.50;;
29026;SDS011;16120;48.608;9.092;2023-12-14T12:01:58;110.00;;;7.77;;
29026;SDS011;16120;48.608;9.092;2023-12-14T12:05:55;110.97;;;7.77;;
29026;SDS011;16120;48.608;9.092;2023-12-14T12:09:50;110.30;;;7.77;;
29026;SDS011;16120;48.608;9.092;2023-12-14T12:13:49;111.37;;;8.07;;
29026;SDS011;16120;48.608;9.092;2023-12-14T12:17:45;111.17;;;8.00;;
29026;SDS011;16120;48.608;9.092;2023-12-14T12:21:41;110.87;;;8.13;;
29026;SDS011;16120;48.608;9.092;2023-12-14T12:25:36;110.90;;;7.97;;
29026;SDS011;16120;48.608;9.092;2023-12-14T12:29:32;110.30;;;7.80;;
29026;SDS011;16120;48.608;9.092;2023-12-14T12:33:27;110.87;;;8.00;;
29026;SDS011;16120;48.608;9.092;2023-12-14T12:37:24;110.87;;;7.73;;
29026;SDS011;16120;48.608;9.092;2023-12-14T12:41:19;110.20;;;7.97;;
29026;SDS011;16120;48.608;9.092;2023-12-14T12:45:14;110.22;;;7.85;;
29026;SDS011;16120;48.608;9.092;2023-12-14T12:49:09;110.97;;;7.97;;
29026;SDS011;16120;48.608;9.092;2023-12-14T12:53:06;110.80;;;8.23;;
29026;SDS011;16120;48.608;9.092;2023-12-14T12:57:01;111.27;;;8.20;;
29026;SDS011;16120;48.608;9.092;2023-12-14T13:00:56;110.53;;;8.02;;
29026;SDS011;16120;48.608;9.092;2023-12-14T13:04:52;110.77;;;8.03;;
29026;SDS011;16120;48.608;9.092;2023-12-14T13:08:48;110.80;;;7.87;;
29026;SDS011;16120;48.608;9.092;2023-12-14T13:12:43;110.73;;;7.97;;
29026;SDS011;16120;48.608;9.092;2023-12-14T13:16:39;111.00;;;8.23;;
29026;SDS011;16120;48.608;9.092;2023-12-14T13:20:35;110.87;;;7.90;;
29026;SDS011;16120;48.608;9.092;2023-12-14T13:24:31;111.07;;;7.93;;
29026;SDS011;16120;48.608;9.092;2023-12-14T13:28:26;111.23;;;8.17;;
29026;SDS011;16120;48.608;9.092;2023-12-14T13:32:22;112.40;;;8.47;;
29026;SDS011;16120;48.608;9.092;2023-12-14T13:36:17;111.17;;;7.87;;
29026;SDS011;16120;48.608;9.092;2023-12-14T13:40:13;110.70;;;7.97;;
29026;SDS011;16120;48.608;9.092;2023-12-14T13:44:09;111.07;;;8.00;;
29026;SDS011;16120;48.608;9.092;2023-12-14T13:48:05;110.77;;;8.07;;
29026;SDS011;16120;48.608;9.092;2023-12-14T13:52:00;111.07;;;8.03;;
29026;SDS011;16120;48.608;9.092;2023-12-14T13:55:57;110.80;;;7.87;;
29026;SDS011;16120;48.608;9.092;2023-12-14T13:59:52;111.17;;;8.30;;
29026;SDS011;16120;48.608;9.092;2023-12-14T14:03:47;111.03;;;8.05;;
29026;SDS011;16120;48.608;9.092;2023-12-14T14:07:43;111.10;;;7.60;;
29026;SDS011;16120;48.608;9.092;2023-12-14T14:11:40;111.67;;;7.50;;
29026;SDS011;16120;48.608;9.092;2023-12-14T14:15:35;112.00;;;7.97;;
29026;SDS011;16120;48.608;9.092;2023-12-14T14:19:30;112.50;;;7.67;;
29026;SDS011;16120;48.608;9.092;2023-12-14T14:23:25;113.37;;;7.97;;
29026;SDS011;16120;48.608;9.092;2023-12-14T14:27:22;111.70;;;7.80;;
29026;SDS011;16120;48.608;9.092;2023-12-14T14:31:17;112.30;;;7.90;;
29026;SDS011;16120;48.608;9.092;2023-12-14T14:35:13;112.30;;;8.10;;
29026;SDS011;16120;48.608;9.092;2023-12-14T14:39:08;112.17;;;7.87;;
29026;SDS011;16120;48.608;9.092;2023-12-14T14:43:04;112.27;;;7.83;;
29026;SDS011;16120;48.608;9.092;2023-12-14T14:47:00;112.67;;;8.10;;
29026;SDS011;16120;48.608;9.092;2023-12-14T14:50:55;113.03;;;8.10;;
29026;SDS011;16120;48.608;9.092;2023-12-14T14:54:50;113.10;;;8.40;;
29026;SDS011;16120;48.608;9.092;2023-12-14T14:58:47;112.47;;;7.87;;
29026;SDS011;16120;48.608;9.092;2023-12-14T15:02:42;112.60;;;7.87;;
29026;SDS011;16120;48.608;9.092;2023-12-14T15:06:37;112.97;;;8.30;;
29026;SDS011;16120;48.608;9.092;2023-12-14T15:10:32;113.00;;;8.20;;
29026;SDS011;16120;48.608;9.092;2023-12-14T15:14:29;112.70;;;8.17;;
29026;SDS011;16120;48.608;9.092;2023-12-14T15:18:24;112.73;;;8.47;;
29026;SDS011;16120;48.608;9.092;2023-12-14T15:22:19;113.00;;;8.17;;
29026;SDS011;16120;48.608;9.092;2023-12-14T15:26:14;112.72;;;8.35;;
29026;SDS011;16120;48.608;9.092;2023-12-14T15:30:12;112.70;;;8.13;;
29026;SDS011;16120;48.608;9.092;2023-12-14T15:34:07;113.17;;;8.60;;
29026;SDS011;16120;48.608;9.092;2023-12-14T15:38:02;113.20;;;8.47;;
29026;SDS011;16120;48.608;9.092;2023-12-14T15:41:57;113.65;;;8.40;;
29026;SDS011;16120;48.608;9.092;2023-12-14T15:45:54;113.43;;;8.55;;
29026;SDS011;16120;48.608;9.092;2023-12-14T15:49:49;113.00;;;8.20;;
29026;SDS011;16120;48.608;9.092;2023-12-14T15:53:44;113.68;;;8.70;;
29026;SDS011;16120;48.608;9.092;2023-12-14T15:57:40;112.90;;;8.13;;
29026;SDS011;16120;48.608;9.092;2023-12-14T16:01:36;113.40;;;8.30;;
29026;SDS011;16120;48.608;9.092;2023-12-14T16:05:31;113.27;;;8.37;;
29026;SDS011;16120;48.608;9.092;2023-12-14T16:09:27;113.53;;;8.35;;
29026;SDS011;16120;48.608;9.092;2023-12-14T16:13:22;113.60;;;8.63;;
29026;SDS011;16120;48.608;9.092;2023-12-14T16:17:18;113.23;;;8.37;;
29026;SDS011;16120;48.608;9.092;2023-12-14T16:21:14;114.03;;;8.60;;
29026;SDS011;16120;48.608;9.092;2023-12-14T16:25:09;113.80;;;8.73;;
29026;SDS011;16120;48.608;9.092;2023-12-14T16:29:04;113.47;;;8.43;;
29026;SDS011;16120;48.608;9.092;2023-12-14T16:33:01;113.40;;;8.47;;
29026;SDS011;16120;48.608;9.092;2023-12-14T16:36:56;113.40;;;8.53;;
29026;SDS011;16120;48.608;9.092;2023-12-14T16:40:51;113.57;;;8.40;;
29026;SDS011;16120;48.608;9.092;2023-12-14T16:44:46;113.57;;;8.43;;
29026;SDS011;16120;48.608;9.092;2023-12-14T16:48:43;113.87;;;8.53;;
29026;SDS011;16120;48.608;9.092;2023-12-14T16:52:38;114.00;;;8.57;;
29026;SDS011;16120;48.608;9.092;2023-12-14T16:56:33;113.53;;;8.00;;
29026;SDS011;16120;48.608;9.092;2023-12-14T17:00:28;113.73;;;8.40;;
29026;SDS011;16120;48.608;9.092;2023-12-14T17:04:25;113.80;;;8.33;;
29026;SDS011;16120;48.608;9.092;2023-12-14T17:08:20;113.87;;;8.43;;
29026;SDS011;16120;48.608;9.092;2023-12-14T17:12:15;114.30;;;8.60;;
29026;SDS011;16120;48.608;9.092;2023-12-14T17:16:11;114.23;;;8.60;;
29026;SDS011;16120;48.608;9.092;2023-12-14T17:20:08;113.87;;;8.57;;
29026;SDS011;16120;48.608;9.092;2023-12-14T17:24:03;113.87;;;8.53;;
29026;SDS011;16120;48.608;9.092;2023-12-14T17:27:58;114.07;;;8.80;;
29026;SDS011;16120;48.608;9.092;2023-12-14T17:31:54;114.27;;;8.67;;
29026;SDS011;16120;48.608;9.092;2023-12-14T17:35:50;114.50;;;8.83;;
29026;SDS011;16120;48.608;9.092;2023-12-14T17:39:45;114.07;;;8.90;;
29026;SDS011;16120;48.608;9.092;2023-12-14T17:43:41;113.90;;;8.40;;
29026;SDS011;16120;48.608;9.092;2023-12-14T17:47:36;114.17;;;8.70;;
29026;SDS011;16120;48.608;9.092;2023-12-14T17:51:32;113.60;;;8.40;;
29026;SDS011;16120;48.608;9.092;2023-12-14T17:55:28;114.07;;;8.80;;
29026;SDS011;16120;48.608;9.092;2023-12-14T17:59:23;114.57;;;8.87;;
29026;SDS011;16120;48.608;9.092;2023-12-14T18:03:18;114.73;;;8.87;;
29026;SDS011;16120;48.608;9.092;2023-12-14T18:07:15;114.10;;;8.30;;
29026;SDS011;16120;48.608;9.092;2023-12-14T18:11:10;114.57;;;8.40;;
29026;SDS011;16120;48.608;9.092;2023-12-14T18:15:05;113.57;;;8.63;;
29026;SDS011;16120;48.608;9.092;2023-12-14T18:19:01;114.40;;;8.97;;
29026;SDS011;16120;48.608;9.092;2023-12-14T18:22:57;114.47;;;8.70;;
29026;SDS011;16120;48.608;9.092;2023-12-14T18:26:52;114.07;;;8.77;;
29026;SDS011;16120;48.608;9.092;2023-12-14T18:30:48;113.78;;;8.32;;
29026;SDS011;16120;48.608;9.092;2023-12-14T18:34:43;114.17;;;8.80;;
29026;SDS011;16120;48.608;9.092;2023-12-14T18:38:39;113.90;;;8.57;;
29026;SDS011;16120;48.608;9.092;2023-12-14T18:42:35;114.50;;;8.90;;
29026;SDS011;16120;48.608;9.092;2023-12-14T18:46:30;114.47;;;8.23;;
29026;SDS011;16120;48.608;9.092;2023-12-14T18:50:25;114.50;;;8.37;;
29026;SDS011;16120;48.608;9.092;2023-12-14T18:54:22;114.20;;;8.37;;
29026;SDS011;16120;48.608;9.092;2023-12-14T18:58:17;114.67;;;8.87;;
29026;SDS011;16120;48.608;9.092;2023-12-14T19:02:12;114.40;;;8.60;;
29026;SDS011;16120;48.608;9.092;2023-12-14T19:06:07;114.87;;;8.87;;
29026;SDS011;16120;48.608;9.092;2023-12-14T19:10:05;114.73;;;8.43;;
29026;SDS011;16120;48.608;9.092;2023-12-14T19:14:00;115.10;;;8.47;;
29026;SDS011;16120;48.608;9.092;2023-12-14T19:17:55;115.67;;;8.80;;
29026;SDS011;16120;48.608;9.092;2023-12-14T19:21:53;114.80;;;8.60;;
29026;SDS011;16120;48.608;9.092;2023-12-14T19:25:50;114.53;;;8.63;;
29026;SDS011;16120;48.608;9.092;2023-12-14T19:29:45;114.90;;;8.43;;
29026;SDS011;16120;48.608;9.092;2023-12-14T19:33:40;114.80;;;8.60;;
29026;SDS011;16120;48.608;9.092;2023-12-14T19:37:35;115.00;;;8.60;;
29026;SDS011;16120;48.608;9.092;2023-12-14T19:41:32;114.77;;;8.47;;
29026;SDS011;16120;48.608;9.092;2023-12-14T19:45:27;115.27;;;8.80;;
29026;SDS011;16120;48.608;9.092;2023-12-14T19:49:23;114.43;;;8.73;;
29026;SDS011;16120;48.608;9.092;2023-12-14T19:53:18;115.03;;;8.73;;
29026;SDS011;16120;48.608;9.092;2023-12-14T19:57:15;114.90;;;8.90;;
29026;SDS011;16120;48.608;9.092;2023-12-14T20:01:10;114.57;;;8.53;;
29026;SDS011;16120;48.608;9.092;2023-12-14T20:05:05;115.03;;;8.68;;
29026;SDS011;16120;48.608;9.092;2023-12-14T20:09:01;114.97;;;9.00;;
29026;SDS011;16120;48.608;9.092;2023-12-14T20:12:57;114.80;;;8.50;;
29026;SDS011;16120;48.608;9.092;2023-12-14T20:16:53;114.70;;;8.90;;
29026;SDS011;16120;48.608;9.092;2023-12-14T20:20:48;114.93;;;8.77;;
29026;SDS011;16120;48.608;9.092;2023-12-14T20:24:43;114.90;;;8.53;;
29026;SDS011;16120;48.608;9.092;2023-12-14T20:28:40;115.05;;;8.80;;
29026;SDS011;16120;48.608;9.092;2023-12-14T20:32:35;115.00;;;8.53;;
29026;SDS011;16120;48.608;9.092;2023-12-14T20:36:30;114.80;;;8.53;;
29026;SDS011;16120;48.608;9.092;2023-12-14T20:40:25;115.13;;;8.95;;
29026;SDS011;16120;48.608;9.092;2023-12-14T20:44:22;114.90;;;8.57;;
29026;SDS011;16120;48.608;9.092;2023-12-14T20:48:17;114.37;;;8.50;;
29026;SDS011;16120;48.608;9.092;2023-12-14T20:52:12;115.10;;;8.63;;
29026;SDS011;16120;48.608;9.092;2023-12-14T20:56:07;114.80;;;8.47;;
29026;SDS011;16120;48.608;9.092;2023-12-14T21:00:05;115.10;;;8.70;;
29026;SDS011;16120;48.608;9.092;2023-12-14T21:04:00;115.03;;;8.37;;
29026;SDS011;16120;48.608;9.092;2023-12-14T21:07:56;115.30;;;8.73;;
29026;SDS011;16120;48.608;9.092;2023-12-14T21:11:51;115.57;;;8.83;;
29026;SDS011;16120;48.608;9.092;2023-12-14T21:15:48;115.50;;;8.97;;
29026;SDS011;16120;48.608;9.092;2023-12-14T21:19:45;115.70;;;9.10;;
29026;SDS011;16120;48.608;9.092;2023-12-14T21:23:40;115.77;;;9.13;;
29026;SDS011;16120;48.608;9.092;2023-12-14T21:27:37;116.07;;;9.40;;
29026;SDS011;16120;48.608;9.092;2023-12-14T21:31:36;115.77;;;9.07;;
29026;SDS011;16120;48.608;9.092;2023-12-14T21:35:32;116.00;;;9.07;;
29026;SDS011;16120;48.608;9.092;2023-12-14T21:39:27;115.80;;;9.00;;
29026;SDS011;16120;48.608;9.092;2023-12-14T21:43:22;115.90;;;9.13;;
29026;SDS011;16120;48.608;9.092;2023-12-14T21:47:18;116.30;;;9.57;;
29026;SDS011;16120;48.608;9.092;2023-12-14T21:51:14;116.00;;;8.90;;
29026;SDS011;16120;48.608;9.092;2023-12-14T21:55:09;116.43;;;9.53;;
29026;SDS011;16120;48.608;9.092;2023-12-14T21:59:04;116.18;;;9.20;;
29026;SDS011;16120;48.608;9.092;2023-12-14T22:03:01;115.47;;;8.83;;
29026;SDS011;16120;48.608;9.092;2023-12-14T22:06:56;116.30;;;9.57;;
29026;SDS011;16120;48.608;9.092;2023-12-14T22:10:51;116.10;;;9.47;;
29026;SDS011;16120;48.608;9.092;2023-12-14T22:14:46;116.20;;;9.30;;
29026;SDS011;16120;48.608;9.092;2023-12-14T22:18:43;116.33;;;9.27;;
29026;SDS011;16120;48.608;9.092;2023-12-14T22:22:38;116.07;;;9.37;;
29026;SDS011;16120;48.608;9.092;2023-12-14T22:26:33;116.10;;;9.13;;
29026;SDS011;16120;48.608;9.092;2023-12-14T22:30:29;116.50;;;9.02;;
29026;SDS011;16120;48.608;9.092;2023-12-14T22:34:25;115.87;;;8.70;;
29026;SDS011;16120;48.608;9.092;2023-12-14T22:38:21;115.97;;;8.93;;
29026;SDS011;16120;48.608;9.092;2023-12-14T22:42:16;115.37;;;8.83;;
29026;SDS011;16120;48.608;9.092;2023-12-14T22:46:11;116.18;;;8.50;;
29026;SDS011;16120;48.608;9.092;2023-12-14T22:50:08;115.47;;;8.80;;
29026;SDS011;16120;48.608;9.092;2023-12-14T22:54:03;115.77;;;9.00;;
29026;SDS011;16120;48.608;9.092;2023-12-14T22:57:59;116.07;;;8.80;;